createdAt,value
2017-02-26T00:00:53.088Z,0
2017-02-26T00:02:03.787Z,0
2017-02-26T00:03:14.125Z,0
2017-02-26T00:04:24.435Z,0
2017-02-26T00:05:35.133Z,0
2017-02-26T00:06:45.439Z,0
2017-02-26T00:07:56.139Z,0
2017-02-26T00:09:06.874Z,0
2017-02-26T00:10:17.594Z,0
2017-02-26T00:11:27.913Z,0
2017-02-26T00:12:38.608Z,0
2017-02-26T00:13:49.371Z,0
2017-02-26T00:15:00.093Z,0
2017-02-26T00:16:10.782Z,0
2017-02-26T00:17:21.478Z,0
2017-02-26T00:18:32.186Z,0
2017-02-26T00:19:42.879Z,0
2017-02-26T00:20:53.577Z,0
2017-02-26T00:22:04.297Z,0
2017-02-26T00:23:14.597Z,0
2017-02-26T00:24:25.304Z,0
2017-02-26T00:25:35.601Z,0
2017-02-26T00:26:45.887Z,0
2017-02-26T00:27:56.575Z,0
2017-02-26T00:29:07.293Z,0
2017-02-26T00:30:18.004Z,0
2017-02-26T00:31:28.724Z,0
2017-02-26T00:32:39.437Z,0
2017-02-26T00:33:50.126Z,0
2017-02-26T00:35:00.847Z,0
2017-02-26T00:36:11.142Z,0
2017-02-26T00:37:21.853Z,0
2017-02-26T00:38:32.558Z,0
2017-02-26T00:39:43.258Z,0
2017-02-26T00:40:53.972Z,0
2017-02-26T00:42:04.674Z,0
2017-02-26T00:43:15.376Z,0
2017-02-26T00:44:26.071Z,0
2017-02-26T00:45:36.761Z,0
2017-02-26T00:46:47.071Z,0
2017-02-26T00:47:57.769Z,0
2017-02-26T00:49:08.453Z,0
2017-02-26T00:50:18.754Z,0
2017-02-26T00:51:29.451Z,0
2017-02-26T00:52:40.165Z,0
2017-02-26T00:53:50.863Z,0
2017-02-26T00:55:01.572Z,0
2017-02-26T00:56:11.874Z,0
2017-02-26T00:57:22.182Z,0
2017-02-26T00:58:32.883Z,0
2017-02-26T00:59:43.174Z,0
2017-02-26T01:00:53.873Z,0
2017-02-26T01:02:04.575Z,0
2017-02-26T01:03:15.301Z,0
2017-02-26T01:04:25.595Z,0
2017-02-26T01:05:35.508Z,0
2017-02-26T01:06:46.206Z,0
2017-02-26T01:07:56.912Z,0
2017-02-26T01:09:07.622Z,0
2017-02-26T01:10:18.322Z,0
2017-02-26T01:11:28.631Z,0
2017-02-26T01:12:39.319Z,0
2017-02-26T01:13:50.009Z,0
2017-02-26T01:15:00.730Z,0
2017-02-26T01:16:11.030Z,0
2017-02-26T01:17:21.730Z,0
2017-02-26T01:18:32.435Z,0
2017-02-26T01:19:43.152Z,0
2017-02-26T01:20:53.840Z,0
2017-02-26T01:22:04.543Z,0
2017-02-26T01:23:15.236Z,0
2017-02-26T01:24:27.924Z,0
2017-02-26T01:25:37.876Z,0
2017-02-26T01:26:48.572Z,0
2017-02-26T01:27:59.276Z,0
2017-02-26T01:29:09.997Z,0
2017-02-26T01:30:20.287Z,0
2017-02-26T01:31:30.970Z,0
2017-02-26T01:32:41.256Z,0
2017-02-26T01:33:51.961Z,0
2017-02-26T01:35:02.660Z,0
2017-02-26T01:36:13.367Z,0
2017-02-26T01:37:24.061Z,0
2017-02-26T01:38:34.354Z,0
2017-02-26T01:39:44.672Z,0
2017-02-26T01:40:55.385Z,0
2017-02-26T01:42:05.696Z,0
2017-02-26T01:43:16.400Z,0
2017-02-26T01:44:27.091Z,0
2017-02-26T01:45:37.806Z,0
2017-02-26T01:46:48.499Z,0
2017-02-26T01:47:59.213Z,0
2017-02-26T01:49:09.505Z,0
2017-02-26T01:50:20.193Z,0
2017-02-26T01:51:30.499Z,0
2017-02-26T01:52:41.209Z,0
2017-02-26T01:53:51.904Z,0
2017-02-26T01:55:02.594Z,0
2017-02-26T01:56:13.282Z,0
2017-02-26T01:57:23.974Z,0
2017-02-26T01:58:34.660Z,0
2017-02-26T01:59:45.355Z,0
2017-02-26T02:00:56.058Z,0
2017-02-26T02:02:06.747Z,0
2017-02-26T02:03:17.433Z,0
2017-02-26T02:04:27.731Z,0
2017-02-26T02:05:38.450Z,0
2017-02-26T02:06:49.148Z,0
2017-02-26T02:07:59.853Z,0
2017-02-26T02:09:10.552Z,0
2017-02-26T02:10:21.254Z,0
2017-02-26T02:11:31.174Z,0
2017-02-26T02:12:41.893Z,0
2017-02-26T02:13:52.598Z,0
2017-02-26T02:15:03.308Z,0
2017-02-26T02:16:13.619Z,0
2017-02-26T02:17:26.332Z,0
2017-02-26T02:18:36.244Z,0
2017-02-26T02:19:46.966Z,0
2017-02-26T02:20:57.654Z,0
2017-02-26T02:22:07.949Z,0
2017-02-26T02:23:20.749Z,0
2017-02-26T02:24:31.052Z,0
2017-02-26T02:25:41.751Z,0
2017-02-26T02:26:52.441Z,0
2017-02-26T02:28:03.152Z,0
2017-02-26T02:29:13.851Z,0
2017-02-26T02:30:24.151Z,0
2017-02-26T02:31:34.457Z,0
2017-02-26T02:32:45.144Z,0
2017-02-26T02:33:55.448Z,0
2017-02-26T02:35:06.153Z,0
2017-02-26T02:36:16.837Z,0
2017-02-26T02:37:27.172Z,0
2017-02-26T02:38:37.456Z,0
2017-02-26T02:39:48.156Z,0
2017-02-26T02:40:58.841Z,0
2017-02-26T02:42:09.563Z,0
2017-02-26T02:43:20.265Z,0
2017-02-26T02:44:30.966Z,0
2017-02-26T02:45:41.261Z,0
2017-02-26T02:46:51.950Z,0
2017-02-26T02:48:02.637Z,0
2017-02-26T02:49:13.340Z,0
2017-02-26T02:50:23.643Z,0
2017-02-26T02:51:33.569Z,0
2017-02-26T02:52:44.268Z,0
2017-02-26T02:53:54.966Z,0
2017-02-26T02:55:05.685Z,0
2017-02-26T02:56:16.383Z,0
2017-02-26T02:57:26.679Z,0
2017-02-26T02:58:36.988Z,0
2017-02-26T02:59:47.283Z,0
2017-02-26T03:00:57.995Z,0
2017-02-26T03:02:08.292Z,0
2017-02-26T03:03:18.590Z,0
2017-02-26T03:04:29.456Z,0
2017-02-26T03:05:40.150Z,0
2017-02-26T03:06:50.835Z,0
2017-02-26T03:08:01.537Z,0
2017-02-26T03:09:12.229Z,0
2017-02-26T03:10:23.277Z,0
2017-02-26T03:11:33.586Z,0
2017-02-26T03:12:43.891Z,0
2017-02-26T03:13:54.197Z,0
2017-02-26T03:15:04.894Z,0
2017-02-26T03:16:19.164Z,0
2017-02-26T03:17:29.485Z,0
2017-02-26T03:18:40.183Z,0
2017-02-26T03:19:50.500Z,0
2017-02-26T03:21:01.211Z,0
2017-02-26T03:22:11.508Z,0
2017-02-26T03:23:22.197Z,0
2017-02-26T03:24:32.127Z,0
2017-02-26T03:25:42.863Z,0
2017-02-26T03:26:53.549Z,0
2017-02-26T03:28:04.545Z,0
2017-02-26T03:29:15.249Z,0
2017-02-26T03:30:25.935Z,0
2017-02-26T03:31:36.245Z,0
2017-02-26T03:32:46.937Z,0
2017-02-26T03:33:57.628Z,0
2017-02-26T03:35:07.918Z,0
2017-02-26T03:36:18.616Z,0
2017-02-26T03:37:28.933Z,0
2017-02-26T03:38:39.217Z,0
2017-02-26T03:39:49.952Z,0
2017-02-26T03:41:00.645Z,0
2017-02-26T03:42:10.542Z,0
2017-02-26T03:43:21.246Z,0
2017-02-26T03:44:31.950Z,0
2017-02-26T03:45:42.643Z,0
2017-02-26T03:46:53.341Z,0
2017-02-26T03:48:04.039Z,0
2017-02-26T03:49:14.722Z,0
2017-02-26T03:50:24.623Z,0
2017-02-26T03:51:34.917Z,0
2017-02-26T03:52:45.231Z,0
2017-02-26T03:53:55.912Z,0
2017-02-26T03:55:06.608Z,0
2017-02-26T03:56:17.299Z,0
2017-02-26T03:57:28.003Z,0
2017-02-26T03:58:38.707Z,0
2017-02-26T03:59:48.246Z,0
2017-02-26T04:00:58.936Z,0
2017-02-26T04:02:09.695Z,0
2017-02-26T04:03:20.405Z,0
2017-02-26T04:04:31.103Z,0
2017-02-26T04:05:41.418Z,0
2017-02-26T04:06:52.126Z,0
2017-02-26T04:08:02.834Z,0
2017-02-26T04:09:13.560Z,0
2017-02-26T04:10:24.255Z,0
2017-02-26T04:11:34.966Z,0
2017-02-26T04:12:45.668Z,0
2017-02-26T04:13:56.369Z,0
2017-02-26T04:15:07.116Z,0
2017-02-26T04:16:17.803Z,0
2017-02-26T04:17:28.105Z,0
2017-02-26T04:18:38.790Z,0
2017-02-26T04:19:49.498Z,0
2017-02-26T04:21:00.184Z,0
2017-02-26T04:22:10.891Z,0
2017-02-26T04:23:21.583Z,0
2017-02-26T04:24:32.355Z,0
2017-02-26T04:25:42.260Z,0
2017-02-26T04:26:52.986Z,0
2017-02-26T04:28:03.695Z,0
2017-02-26T04:29:14.408Z,0
2017-02-26T04:30:25.093Z,0
2017-02-26T04:31:35.778Z,0
2017-02-26T04:32:46.504Z,0
2017-02-26T04:33:57.220Z,0
2017-02-26T04:35:07.919Z,0
2017-02-26T04:36:18.613Z,0
2017-02-26T04:37:28.518Z,0
2017-02-26T04:38:39.226Z,0
2017-02-26T04:39:49.522Z,0
2017-02-26T04:41:00.221Z,0
2017-02-26T04:42:10.517Z,0
2017-02-26T04:43:21.207Z,0
2017-02-26T04:44:31.513Z,0
2017-02-26T04:45:42.212Z,0
2017-02-26T04:46:52.911Z,0
2017-02-26T04:48:03.634Z,0
2017-02-26T04:49:14.342Z,0
2017-02-26T04:50:25.035Z,0
2017-02-26T04:51:35.730Z,0
2017-02-26T04:52:45.635Z,0
2017-02-26T04:53:56.400Z,0
2017-02-26T04:55:07.150Z,0
2017-02-26T04:56:17.458Z,0
2017-02-26T04:57:27.775Z,0
2017-02-26T04:58:38.072Z,0
2017-02-26T04:59:48.768Z,0
2017-02-26T05:00:59.453Z,0
2017-02-26T05:02:10.151Z,0
2017-02-26T05:03:20.846Z,0
2017-02-26T05:04:31.546Z,0
2017-02-26T05:05:42.246Z,0
2017-02-26T05:06:52.931Z,0
2017-02-26T05:08:03.650Z,0
2017-02-26T05:09:14.358Z,0
2017-02-26T05:10:25.059Z,0
2017-02-26T05:11:35.392Z,0
2017-02-26T05:12:46.105Z,0
2017-02-26T05:13:56.808Z,0
2017-02-26T05:15:07.506Z,0
2017-02-26T05:16:17.822Z,0
2017-02-26T05:17:28.515Z,0
2017-02-26T05:18:38.478Z,0
2017-02-26T05:19:49.176Z,0
2017-02-26T05:20:59.865Z,0
2017-02-26T05:22:10.570Z,0
2017-02-26T05:23:21.274Z,0
2017-02-26T05:24:31.993Z,0
2017-02-26T05:25:41.885Z,0
2017-02-26T05:26:52.582Z,0
2017-02-26T05:28:03.292Z,0
2017-02-26T05:29:13.992Z,0
2017-02-26T05:30:24.685Z,0
2017-02-26T05:31:35.390Z,0
2017-02-26T05:32:46.082Z,0
2017-02-26T05:33:56.801Z,0
2017-02-26T05:35:07.507Z,0
2017-02-26T05:36:18.200Z,0
2017-02-26T05:37:28.494Z,0
2017-02-26T05:38:38.400Z,0
2017-02-26T05:39:49.112Z,0
2017-02-26T05:40:59.799Z,0
2017-02-26T05:42:10.501Z,0
2017-02-26T05:43:20.811Z,0
2017-02-26T05:44:31.514Z,0
2017-02-26T05:45:41.408Z,4
2017-02-26T05:46:52.148Z,4
2017-02-26T05:48:02.853Z,4
2017-02-26T05:49:13.540Z,0
2017-02-26T05:50:24.253Z,4
2017-02-26T05:51:34.550Z,4
2017-02-26T05:52:45.254Z,4
2017-02-26T05:53:55.963Z,8
2017-02-26T05:55:06.665Z,8
2017-02-26T05:56:16.954Z,8
2017-02-26T05:57:27.665Z,8
2017-02-26T05:58:38.371Z,12
2017-02-26T05:59:49.092Z,12
2017-02-26T06:00:59.787Z,16
2017-02-26T06:02:10.479Z,16
2017-02-26T06:03:21.181Z,20
2017-02-26T06:04:31.870Z,20
2017-02-26T06:05:42.574Z,28
2017-02-26T06:06:53.277Z,32
2017-02-26T06:08:03.963Z,36
2017-02-26T06:09:14.683Z,40
2017-02-26T06:10:24.999Z,44
2017-02-26T06:11:35.687Z,52
2017-02-26T06:12:46.368Z,56
2017-02-26T06:13:57.066Z,64
2017-02-26T06:15:07.759Z,68
2017-02-26T06:16:18.449Z,76
2017-02-26T06:17:28.771Z,84
2017-02-26T06:18:39.495Z,92
2017-02-26T06:19:50.207Z,104
2017-02-26T06:21:00.905Z,112
2017-02-26T06:22:11.602Z,116
2017-02-26T06:23:22.310Z,120
2017-02-26T06:24:32.622Z,128
2017-02-26T06:25:43.304Z,136
2017-02-26T06:26:54.022Z,144
2017-02-26T06:28:04.713Z,152
2017-02-26T06:29:15.408Z,160
2017-02-26T06:30:25.710Z,176
2017-02-26T06:31:36.407Z,188
2017-02-26T06:32:46.701Z,208
2017-02-26T06:33:57.412Z,228
2017-02-26T06:35:08.103Z,244
2017-02-26T06:36:18.419Z,260
2017-02-26T06:37:29.119Z,276
2017-02-26T06:38:39.821Z,300
2017-02-26T06:39:50.523Z,320
2017-02-26T06:41:01.220Z,336
2017-02-26T06:42:11.918Z,360
2017-02-26T06:43:22.647Z,384
2017-02-26T06:44:33.332Z,408
2017-02-26T06:45:44.036Z,432
2017-02-26T06:46:54.732Z,460
2017-02-26T06:48:05.430Z,476
2017-02-26T06:49:16.174Z,504
2017-02-26T06:50:26.492Z,528
2017-02-26T06:51:37.190Z,552
2017-02-26T06:52:47.897Z,580
2017-02-26T06:53:58.583Z,604
2017-02-26T06:55:09.315Z,628
2017-02-26T06:56:20.039Z,652
2017-02-26T06:57:30.743Z,684
2017-02-26T06:58:41.439Z,712
2017-02-26T06:59:52.194Z,744
2017-02-26T07:01:02.493Z,776
2017-02-26T07:02:12.807Z,812
2017-02-26T07:03:23.521Z,852
2017-02-26T07:04:33.417Z,896
2017-02-26T07:05:44.116Z,944
2017-02-26T07:06:54.812Z,980
2017-02-26T07:08:05.509Z,1016
2017-02-26T07:09:16.231Z,1048
2017-02-26T07:10:26.553Z,1080
2017-02-26T07:11:37.292Z,1124
2017-02-26T07:12:47.218Z,1168
2017-02-26T07:13:57.909Z,1220
2017-02-26T07:15:08.217Z,1284
2017-02-26T07:16:18.920Z,1360
2017-02-26T07:17:29.230Z,1432
2017-02-26T07:18:39.940Z,1500
2017-02-26T07:19:50.643Z,1560
2017-02-26T07:21:01.342Z,1604
2017-02-26T07:22:12.039Z,1632
2017-02-26T07:23:22.733Z,1656
2017-02-26T07:24:33.024Z,1696
2017-02-26T07:25:43.343Z,1764
2017-02-26T07:26:53.661Z,1868
2017-02-26T07:28:04.366Z,1988
2017-02-26T07:29:14.690Z,2112
2017-02-26T07:30:25.404Z,2228
2017-02-26T07:31:36.120Z,2332
2017-02-26T07:32:46.810Z,2440
2017-02-26T07:33:57.520Z,2544
2017-02-26T07:35:08.228Z,2640
2017-02-26T07:36:18.923Z,2716
2017-02-26T07:37:29.635Z,2772
2017-02-26T07:38:40.337Z,2832
2017-02-26T07:39:50.634Z,2884
2017-02-26T07:41:01.331Z,2928
2017-02-26T07:42:11.622Z,2952
2017-02-26T07:43:22.338Z,2972
2017-02-26T07:44:32.644Z,3012
2017-02-26T07:45:42.951Z,3076
2017-02-26T07:46:53.253Z,3160
2017-02-26T07:48:03.942Z,3268
2017-02-26T07:49:14.631Z,3392
2017-02-26T07:50:25.323Z,3520
2017-02-26T07:51:36.040Z,3664
2017-02-26T07:52:46.766Z,3800
2017-02-26T07:53:57.459Z,3956
2017-02-26T07:55:08.168Z,4076
2017-02-26T07:56:18.873Z,4148
2017-02-26T07:57:29.573Z,4168
2017-02-26T07:58:40.312Z,4144
2017-02-26T07:59:51.010Z,4124
2017-02-26T08:01:01.295Z,4092
2017-02-26T08:02:11.599Z,4072
2017-02-26T08:03:21.523Z,4060
2017-02-26T08:04:31.810Z,4064
2017-02-26T08:05:42.508Z,4072
2017-02-26T08:06:53.201Z,4112
2017-02-26T08:08:03.898Z,4196
2017-02-26T08:09:14.213Z,4308
2017-02-26T08:10:24.119Z,4424
2017-02-26T08:11:34.807Z,4488
2017-02-26T08:12:45.110Z,4536
2017-02-26T08:13:55.404Z,4596
2017-02-26T08:15:06.104Z,4688
2017-02-26T08:16:16.807Z,4800
2017-02-26T08:17:27.508Z,4864
2017-02-26T08:18:38.211Z,4872
2017-02-26T08:19:48.111Z,4856
2017-02-26T08:20:58.795Z,4820
2017-02-26T08:22:09.507Z,4776
2017-02-26T08:23:20.214Z,4744
2017-02-26T08:24:30.522Z,4720
2017-02-26T08:25:41.210Z,4704
2017-02-26T08:26:51.934Z,4716
2017-02-26T08:28:02.630Z,4748
2017-02-26T08:29:13.354Z,4796
2017-02-26T08:30:24.055Z,4844
2017-02-26T08:31:34.770Z,4908
2017-02-26T08:32:45.062Z,5004
2017-02-26T08:33:55.383Z,5120
2017-02-26T08:35:05.700Z,5244
2017-02-26T08:36:16.389Z,5384
2017-02-26T08:37:26.716Z,5552
2017-02-26T08:38:37.411Z,5700
2017-02-26T08:39:48.105Z,5868
2017-02-26T08:40:58.407Z,6060
2017-02-26T08:42:09.102Z,6228
2017-02-26T08:43:18.636Z,6332
2017-02-26T08:44:29.353Z,6484
2017-02-26T08:45:40.105Z,6632
2017-02-26T08:46:50.415Z,6732
2017-02-26T08:48:01.159Z,6804
2017-02-26T08:49:11.472Z,6908
2017-02-26T08:50:22.176Z,7068
2017-02-26T08:51:32.871Z,7232
2017-02-26T08:52:43.185Z,7316
2017-02-26T08:53:53.892Z,7368
2017-02-26T08:55:04.193Z,7492
2017-02-26T08:56:14.499Z,7608
2017-02-26T08:57:24.797Z,7672
2017-02-26T08:58:35.485Z,7700
2017-02-26T08:59:45.800Z,7728
2017-02-26T09:00:56.119Z,7728
2017-02-26T09:02:06.838Z,7732
2017-02-26T09:03:17.571Z,7776
2017-02-26T09:04:28.262Z,7816
2017-02-26T09:05:38.954Z,7888
2017-02-26T09:06:49.276Z,7960
2017-02-26T09:07:59.586Z,8012
2017-02-26T09:09:10.287Z,8056
2017-02-26T09:10:20.986Z,8128
2017-02-26T09:11:31.684Z,8244
2017-02-26T09:12:42.381Z,8344
2017-02-26T09:13:52.697Z,8352
2017-02-26T09:15:03.400Z,8288
2017-02-26T09:16:14.093Z,8152
2017-02-26T09:17:24.801Z,7960
2017-02-26T09:18:35.494Z,7780
2017-02-26T09:19:46.198Z,7672
2017-02-26T09:20:56.506Z,7544
2017-02-26T09:22:07.218Z,7536
2017-02-26T09:23:17.520Z,7468
2017-02-26T09:24:28.222Z,7368
2017-02-26T09:25:38.929Z,7440
2017-02-26T09:26:49.620Z,7600
2017-02-26T09:28:00.340Z,7784
2017-02-26T09:29:11.050Z,8036
2017-02-26T09:30:21.757Z,8196
2017-02-26T09:31:32.450Z,8164
2017-02-26T09:32:42.758Z,8136
2017-02-26T09:33:53.462Z,8124
2017-02-26T09:35:04.158Z,8448
2017-02-26T09:36:14.865Z,8572
2017-02-26T09:37:24.773Z,9080
2017-02-26T09:38:35.468Z,10024
2017-02-26T09:39:46.166Z,11180
2017-02-26T09:40:55.683Z,12472
2017-02-26T09:42:06.398Z,13712
2017-02-26T09:43:16.698Z,14368
2017-02-26T09:44:27.011Z,15188
2017-02-26T09:45:37.700Z,15300
2017-02-26T09:46:48.440Z,15348
2017-02-26T09:47:59.162Z,15464
2017-02-26T09:49:09.999Z,15700
2017-02-26T09:50:20.701Z,15892
2017-02-26T09:51:31.020Z,17504
2017-02-26T09:52:41.326Z,18016
2017-02-26T09:53:52.089Z,18080
2017-02-26T09:55:02.408Z,18208
2017-02-26T09:56:13.115Z,18240
2017-02-26T09:57:23.834Z,18272
2017-02-26T09:58:34.574Z,18656
2017-02-26T09:59:45.314Z,18144
2017-02-26T10:00:55.619Z,17344
2017-02-26T10:02:06.383Z,15928
2017-02-26T10:03:17.112Z,14580
2017-02-26T10:04:27.845Z,13476
2017-02-26T10:05:38.542Z,12880
2017-02-26T10:06:49.234Z,12544
2017-02-26T10:07:59.533Z,12332
2017-02-26T10:09:10.256Z,12096
2017-02-26T10:10:20.577Z,11864
2017-02-26T10:11:30.083Z,11780
2017-02-26T10:12:40.387Z,11800
2017-02-26T10:13:51.103Z,11752
2017-02-26T10:15:01.805Z,11516
2017-02-26T10:16:12.524Z,11180
2017-02-26T10:17:23.244Z,10700
2017-02-26T10:18:33.970Z,10172
2017-02-26T10:19:44.268Z,9700
2017-02-26T10:20:54.568Z,9360
2017-02-26T10:22:05.272Z,9200
2017-02-26T10:23:15.578Z,9220
2017-02-26T10:24:26.292Z,9404
2017-02-26T10:25:37.008Z,9804
2017-02-26T10:26:47.718Z,10468
2017-02-26T10:27:58.043Z,11308
2017-02-26T10:29:08.354Z,12208
2017-02-26T10:30:19.045Z,12648
2017-02-26T10:31:29.368Z,12504
2017-02-26T10:32:40.084Z,12164
2017-02-26T10:33:50.805Z,11800
2017-02-26T10:35:01.117Z,11464
2017-02-26T10:36:11.832Z,11388
2017-02-26T10:37:22.537Z,11548
2017-02-26T10:38:32.839Z,11768
2017-02-26T10:39:42.763Z,12008
2017-02-26T10:40:53.463Z,12296
2017-02-26T10:42:04.158Z,12860
2017-02-26T10:43:14.465Z,13500
2017-02-26T10:44:25.170Z,14008
2017-02-26T10:45:35.877Z,14520
2017-02-26T10:46:46.182Z,15180
2017-02-26T10:47:56.502Z,15692
2017-02-26T10:49:07.197Z,15828
2017-02-26T10:50:17.899Z,15832
2017-02-26T10:51:28.214Z,15792
2017-02-26T10:52:38.536Z,16248
2017-02-26T10:53:49.247Z,16068
2017-02-26T10:54:59.952Z,15644
2017-02-26T10:56:10.286Z,15020
2017-02-26T10:57:20.983Z,14632
2017-02-26T10:58:31.691Z,14548
2017-02-26T10:59:42.401Z,14408
2017-02-26T11:00:53.125Z,14108
2017-02-26T11:02:03.834Z,13932
2017-02-26T11:03:14.542Z,14252
2017-02-26T11:04:25.246Z,14420
2017-02-26T11:05:35.940Z,14476
2017-02-26T11:06:46.632Z,14844
2017-02-26T11:07:57.329Z,21440
2017-02-26T11:09:08.045Z,32544
2017-02-26T11:10:18.342Z,35104
2017-02-26T11:11:29.062Z,34720
2017-02-26T11:12:38.974Z,34592
2017-02-26T11:13:49.693Z,34080
2017-02-26T11:15:00.009Z,35488
2017-02-26T11:16:10.739Z,36160
2017-02-26T11:17:21.455Z,38240
2017-02-26T11:18:32.170Z,40640
2017-02-26T11:19:42.464Z,42144
2017-02-26T11:20:52.397Z,40416
2017-02-26T11:22:03.109Z,42784
2017-02-26T11:23:13.831Z,42528
2017-02-26T11:24:24.168Z,42144
2017-02-26T11:25:34.470Z,42304
2017-02-26T11:26:44.395Z,42400
2017-02-26T11:27:55.131Z,40544
2017-02-26T11:29:05.841Z,39584
2017-02-26T11:30:16.563Z,41408
2017-02-26T11:31:27.281Z,40480
2017-02-26T11:32:38.000Z,39712
2017-02-26T11:33:48.719Z,39616
2017-02-26T11:34:59.430Z,39872
2017-02-26T11:36:09.749Z,40320
2017-02-26T11:37:20.458Z,39840
2017-02-26T11:38:31.166Z,39360
2017-02-26T11:39:41.475Z,40864
2017-02-26T11:40:52.189Z,41600
2017-02-26T11:42:02.504Z,42080
2017-02-26T11:43:12.815Z,41216
2017-02-26T11:44:22.734Z,41408
2017-02-26T11:45:33.462Z,42368
2017-02-26T11:46:44.194Z,42688
2017-02-26T11:47:54.906Z,42944
2017-02-26T11:49:05.241Z,45312
2017-02-26T11:50:15.958Z,45920
2017-02-26T11:51:26.669Z,44160
2017-02-26T11:52:37.377Z,45056
2017-02-26T11:53:48.091Z,47008
2017-02-26T11:54:57.617Z,47840
2017-02-26T11:56:08.334Z,47680
2017-02-26T11:57:19.059Z,49472
2017-02-26T11:58:29.771Z,50336
2017-02-26T11:59:40.496Z,47648
2017-02-26T12:00:51.202Z,44352
2017-02-26T12:02:01.915Z,48608
2017-02-26T12:03:12.645Z,50848
2017-02-26T12:04:23.371Z,50304
2017-02-26T12:05:33.680Z,46432
2017-02-26T12:06:44.389Z,36672
2017-02-26T12:07:55.118Z,30272
2017-02-26T12:09:05.838Z,26208
2017-02-26T12:10:16.569Z,24256
2017-02-26T12:11:27.277Z,23008
2017-02-26T12:12:37.993Z,22080
2017-02-26T12:13:47.903Z,21536
2017-02-26T12:14:58.241Z,21216
2017-02-26T12:16:08.569Z,21088
2017-02-26T12:17:19.286Z,20992
2017-02-26T12:18:30.000Z,20768
2017-02-26T12:19:39.923Z,20672
2017-02-26T12:20:50.666Z,20608
2017-02-26T12:22:01.002Z,20608
2017-02-26T12:23:11.312Z,20576
2017-02-26T12:24:22.052Z,20512
2017-02-26T12:25:32.781Z,20544
2017-02-26T12:26:43.481Z,20672
2017-02-26T12:27:53.799Z,20800
2017-02-26T12:29:04.119Z,20800
2017-02-26T12:30:14.426Z,20832
2017-02-26T12:31:24.759Z,20896
2017-02-26T12:32:35.482Z,20928
2017-02-26T12:33:45.819Z,21952
2017-02-26T12:34:56.541Z,22496
2017-02-26T12:36:07.274Z,21856
2017-02-26T12:37:17.985Z,21632
2017-02-26T12:38:28.310Z,21568
2017-02-26T12:39:39.028Z,21792
2017-02-26T12:40:49.765Z,21696
2017-02-26T12:42:00.509Z,21568
2017-02-26T12:43:11.218Z,21728
2017-02-26T12:44:21.943Z,21728
2017-02-26T12:45:32.286Z,21824
2017-02-26T12:46:42.608Z,21920
2017-02-26T12:47:52.929Z,21952
2017-02-26T12:49:03.652Z,21696
2017-02-26T12:50:14.361Z,21632
2017-02-26T12:51:25.077Z,21472
2017-02-26T12:52:35.799Z,21472
2017-02-26T12:53:46.162Z,21504
2017-02-26T12:54:56.502Z,21504
2017-02-26T12:56:07.228Z,21536
2017-02-26T12:57:17.959Z,21600
2017-02-26T12:58:28.677Z,21600
2017-02-26T12:59:39.400Z,20256
2017-02-26T13:00:50.111Z,17568
2017-02-26T13:02:00.885Z,18688
2017-02-26T13:03:11.210Z,19552
2017-02-26T13:04:21.619Z,21408
2017-02-26T13:05:32.345Z,21760
2017-02-26T13:06:42.679Z,21888
2017-02-26T13:07:53.422Z,21536
2017-02-26T13:09:04.159Z,21984
2017-02-26T13:10:14.888Z,21984
2017-02-26T13:11:25.598Z,21536
2017-02-26T13:12:35.926Z,21696
2017-02-26T13:13:46.659Z,21088
2017-02-26T13:14:57.376Z,20960
2017-02-26T13:16:08.098Z,20320
2017-02-26T13:17:18.833Z,18208
2017-02-26T13:18:29.562Z,16000
2017-02-26T13:19:39.884Z,15688
2017-02-26T13:20:50.613Z,14476
2017-02-26T13:22:00.919Z,13044
2017-02-26T13:23:11.633Z,11356
2017-02-26T13:24:22.366Z,10416
2017-02-26T13:25:33.093Z,10012
2017-02-26T13:26:43.408Z,9112
2017-02-26T13:27:54.123Z,10248
2017-02-26T13:29:04.466Z,10460
2017-02-26T13:30:15.188Z,9892
2017-02-26T13:31:25.902Z,9552
2017-02-26T13:32:36.214Z,9324
2017-02-26T13:33:46.533Z,8836
2017-02-26T13:34:56.849Z,9032
2017-02-26T13:36:07.577Z,10096
2017-02-26T13:37:17.902Z,8944
2017-02-26T13:38:28.658Z,10072
2017-02-26T13:39:38.582Z,15424
2017-02-26T13:40:49.355Z,15968
2017-02-26T13:42:00.066Z,11020
2017-02-26T13:43:10.783Z,12636
2017-02-26T13:44:21.106Z,12464
2017-02-26T13:45:31.044Z,13324
2017-02-26T13:46:41.360Z,22528
2017-02-26T13:47:51.672Z,20640
2017-02-26T13:49:02.380Z,15320
2017-02-26T13:50:13.092Z,12832
2017-02-26T13:51:23.791Z,10948
2017-02-26T13:52:34.122Z,9868
2017-02-26T13:53:44.861Z,16512
2017-02-26T13:54:55.574Z,21056
2017-02-26T13:56:06.281Z,20064
2017-02-26T13:57:16.992Z,20640
2017-02-26T13:58:27.721Z,14680
2017-02-26T13:59:38.418Z,11148
2017-02-26T14:00:48.736Z,7012
2017-02-26T14:01:59.477Z,10032
2017-02-26T14:03:10.186Z,12372
2017-02-26T14:04:20.913Z,13116
2017-02-26T14:05:31.639Z,18272
2017-02-26T14:06:42.364Z,21792
2017-02-26T14:07:52.691Z,19392
2017-02-26T14:09:03.395Z,13560
2017-02-26T14:10:13.314Z,15616
2017-02-26T14:11:24.044Z,11056
2017-02-26T14:12:34.352Z,6836
2017-02-26T14:13:45.067Z,8428
2017-02-26T14:14:55.851Z,10576
2017-02-26T14:16:06.580Z,9180
2017-02-26T14:17:16.904Z,6632
2017-02-26T14:18:27.618Z,10076
2017-02-26T14:19:38.335Z,9960
2017-02-26T14:20:48.650Z,8780
2017-02-26T14:21:59.363Z,9052
2017-02-26T14:23:09.681Z,9140
2017-02-26T14:24:20.397Z,9516
2017-02-26T14:25:30.712Z,11824
2017-02-26T14:26:40.636Z,17312
2017-02-26T14:27:51.336Z,12572
2017-02-26T14:29:02.045Z,5956
2017-02-26T14:30:12.379Z,11260
2017-02-26T14:31:23.098Z,19712
2017-02-26T14:32:33.407Z,26656
2017-02-26T14:33:43.305Z,26368
2017-02-26T14:34:53.623Z,25600
2017-02-26T14:36:04.353Z,12860
2017-02-26T14:37:15.075Z,7596
2017-02-26T14:38:25.792Z,8844
2017-02-26T14:39:36.547Z,13312
2017-02-26T14:40:46.471Z,16832
2017-02-26T14:41:57.174Z,20384
2017-02-26T14:43:07.889Z,17312
2017-02-26T14:44:18.610Z,13336
2017-02-26T14:45:28.950Z,9596
2017-02-26T14:46:39.674Z,10164
2017-02-26T14:47:49.978Z,10908
2017-02-26T14:49:00.688Z,9428
2017-02-26T14:50:11.407Z,7392
2017-02-26T14:51:22.127Z,7384
2017-02-26T14:52:32.882Z,7868
2017-02-26T14:53:43.603Z,9992
2017-02-26T14:54:54.310Z,9380
2017-02-26T14:56:05.007Z,7204
2017-02-26T14:57:15.727Z,7056
2017-02-26T14:58:26.029Z,9132
2017-02-26T14:59:36.742Z,9504
2017-02-26T15:00:46.665Z,7916
2017-02-26T15:01:56.976Z,7748
2017-02-26T15:03:07.680Z,6680
2017-02-26T15:04:18.384Z,6572
2017-02-26T15:05:29.080Z,8120
2017-02-26T15:06:39.399Z,7012
2017-02-26T15:07:49.733Z,6608
2017-02-26T15:09:00.055Z,7452
2017-02-26T15:10:09.972Z,7300
2017-02-26T15:11:20.681Z,8836
2017-02-26T15:12:31.010Z,14176
2017-02-26T15:13:41.730Z,8916
2017-02-26T15:14:52.425Z,10056
2017-02-26T15:16:02.346Z,8820
2017-02-26T15:17:13.078Z,7268
2017-02-26T15:18:23.774Z,5800
2017-02-26T15:19:34.093Z,4864
2017-02-26T15:20:44.403Z,4384
2017-02-26T15:21:55.113Z,5124
2017-02-26T15:23:05.836Z,6408
2017-02-26T15:24:16.556Z,7956
2017-02-26T15:25:27.271Z,10044
2017-02-26T15:26:38.004Z,9808
2017-02-26T15:27:48.702Z,9636
2017-02-26T15:28:59.055Z,10044
2017-02-26T15:30:09.388Z,11236
2017-02-26T15:31:20.130Z,12320
2017-02-26T15:32:30.833Z,11656
2017-02-26T15:33:41.172Z,11808
2017-02-26T15:34:51.897Z,12352
2017-02-26T15:36:02.600Z,12448
2017-02-26T15:37:13.310Z,11872
2017-02-26T15:38:24.022Z,11840
2017-02-26T15:39:34.329Z,11360
2017-02-26T15:40:44.644Z,10560
2017-02-26T15:41:54.970Z,9664
2017-02-26T15:43:05.683Z,8520
2017-02-26T15:44:15.588Z,7148
2017-02-26T15:45:26.289Z,5532
2017-02-26T15:46:37.014Z,4620
2017-02-26T15:47:47.735Z,3664
2017-02-26T15:48:58.466Z,2940
2017-02-26T15:50:09.170Z,2516
2017-02-26T15:51:19.473Z,2232
2017-02-26T15:52:30.169Z,2072
2017-02-26T15:53:40.887Z,1956
2017-02-26T15:54:51.604Z,1856
2017-02-26T15:56:02.294Z,1760
2017-02-26T15:57:12.993Z,1668
2017-02-26T15:58:23.700Z,1592
2017-02-26T15:59:34.408Z,1516
2017-02-26T16:00:45.119Z,1436
2017-02-26T16:01:55.825Z,1368
2017-02-26T16:03:06.526Z,1304
2017-02-26T16:04:17.263Z,1244
2017-02-26T16:05:27.971Z,1196
2017-02-26T16:06:38.677Z,1140
2017-02-26T16:07:49.385Z,1092
2017-02-26T16:09:00.092Z,1040